Time;durP1;ratioP1;P1;durP2;ratioP2;P2;SDS_P1;SDS_P2;PMS_P1;PMS_P2;Temp;Humidity;BMP_temperature;BMP_pressure;BME280_temperature;BME280_humidity;BME280_pressure;Samples;Min_cycle;Max_cycle;Signal;HPM_P1;HPM_P2
2022/11/26 08:57:11;;;;;;;20.13;5.18;;;9.50;99.90;;;;;;4070564;29;20227;-94
2022/11/26 08:59:13;;;;;;;26.75;5.53;;;9.60;99.90;;;;;;4068903;29;20172;-91
2022/11/26 09:01:23;;;;;;;20.35;5.28;;;9.60;99.90;;;;;;4068969;29;20179;-94
2022/11/26 09:03:24;;;;;;;28.08;5.28;;;9.40;99.90;;;;;;4052898;29;20197;-93
2022/11/26 09:05:25;;;;;;;18.60;4.53;;;9.40;99.90;;;;;;4070149;29;20202;-92
2022/11/26 09:07:28;;;;;;;19.00;4.80;;;9.40;99.90;;;;;;4056121;29;20686;-89
2022/11/26 09:09:29;;;;;;;25.60;4.72;;;9.40;99.90;;;;;;4055818;29;20180;-91
2022/11/26 09:11:32;;;;;;;22.60;4.78;;;9.40;99.90;;;;;;4055731;29;20193;-90
2022/11/26 09:13:32;;;;;;;15.32;4.80;;;9.40;99.90;;;;;;4055701;29;20181;-91
2022/11/26 09:15:35;;;;;;;20.88;5.05;;;9.30;99.90;;;;;;4071355;29;20717;-92
2022/11/26 09:17:36;;;;;;;19.80;4.82;;;9.40;99.90;;;;;;4055322;29;20185;-91
2022/11/26 09:19:37;;;;;;;24.27;5.75;;;9.80;99.90;;;;;;4055516;29;20204;-89
2022/11/26 09:21:38;;;;;;;18.70;4.18;;;9.80;99.90;;;;;;4055523;29;20225;-89
2022/11/26 09:23:39;;;;;;;23.13;5.05;;;9.80;99.90;;;;;;4070942;29;20211;-89
2022/11/26 09:25:39;;;;;;;20.55;4.47;;;9.40;99.90;;;;;;4056083;29;20173;-90
2022/11/26 09:27:40;;;;;;;18.30;4.63;;;9.40;99.90;;;;;;4057100;29;20539;-90
2022/11/26 09:29:41;;;;;;;19.48;4.65;;;9.40;99.90;;;;;;4069310;29;20220;-91
2022/11/26 09:31:43;;;;;;;26.55;5.00;;;9.30;99.90;;;;;;4073706;29;20173;-93
2022/11/26 09:33:44;;;;;;;20.10;4.72;;;9.30;99.90;;;;;;4055329;29;20712;-90
2022/11/26 09:35:45;;;;;;;26.65;5.20;;;9.20;99.90;;;;;;4055181;29;20169;-93
2022/11/26 09:37:46;;;;;;;21.92;4.65;;;9.20;99.90;;;;;;4055236;29;20215;-89
2022/11/26 09:48:42;;;;;;;;;;;;;;;;;;;;;
2022/11/26 15:02:53;;;;;;;20.90;4.20;;;11.10;99.90;;;;;;4084679;29;20238;-95
2022/11/26 15:05:03;;;;;;;20.05;4.85;;;11.30;99.90;;;;;;4071891;29;20327;-89
2022/11/26 15:07:05;;;;;;;18.73;4.15;;;11.30;99.90;;;;;;4073339;29;20172;-90
2022/11/26 15:09:15;;;;;;;21.05;4.55;;;11.30;99.90;;;;;;4088801;29;20179;-91
2022/11/26 17:56:47;;;;;;;28.30;5.35;;;8.90;99.90;;;;;;4426711;23;20265;-92
2022/11/26 17:58:48;;;;;;;25.95;6.50;;;9.00;99.90;;;;;;4071218;29;20187;-90
2022/11/26 18:00:49;;;;;;;18.42;6.00;;;8.90;99.90;;;;;;4070491;29;20176;-91
2022/11/26 18:02:50;;;;;;;23.55;6.15;;;8.90;99.90;;;;;;4070318;29;20696;-92
2022/11/26 18:04:50;;;;;;;24.67;6.18;;;9.10;99.90;;;;;;4070581;29;20203;-93
2022/11/26 18:06:57;;;;;;;23.10;6.10;;;9.10;99.90;;;;;;4072507;29;20172;-91
2022/11/26 18:08:58;;;;;;;28.03;6.43;;;9.00;99.90;;;;;;4070562;29;20188;-93
2022/11/26 18:10:59;;;;;;;19.77;6.10;;;8.90;99.90;;;;;;4086268;29;20175;-93
2022/11/26 18:12:59;;;;;;;22.87;7.00;;;8.80;99.90;;;;;;4070718;29;20232;-93
2022/11/26 18:15:00;;;;;;;16.58;6.35;;;8.80;99.90;;;;;;4087147;29;20223;-94
2022/11/26 18:17:02;;;;;;;29.30;7.28;;;8.60;99.90;;;;;;4070386;29;20275;-92
2022/11/26 18:19:04;;;;;;;23.38;7.03;;;8.50;99.90;;;;;;4086284;29;20258;-93
2022/11/26 18:21:05;;;;;;;20.60;6.70;;;8.50;99.90;;;;;;4086604;29;20178;-91
2022/11/26 18:23:06;;;;;;;24.67;7.40;;;8.50;99.90;;;;;;4070838;29;20226;-93
2022/11/26 18:25:08;;;;;;;19.70;6.80;;;8.60;99.90;;;;;;4054745;29;20209;-94
2022/11/26 18:27:09;;;;;;;20.90;6.75;;;8.50;99.90;;;;;;4072028;29;20223;-93
2022/11/26 18:29:10;;;;;;;22.88;7.22;;;8.50;99.90;;;;;;4088775;29;20175;-94
2022/11/26 18:31:12;;;;;;;27.40;6.40;;;8.60;99.90;;;;;;4086611;29;20198;-93
2022/11/26 18:33:14;;;;;;;21.93;7.60;;;8.50;99.90;;;;;;4086083;29;20163;-94
2022/11/26 18:35:16;;;;;;;20.80;7.57;;;8.60;99.90;;;;;;4071127;29;20219;-93
2022/11/26 18:37:17;;;;;;;20.30;7.17;;;8.70;99.90;;;;;;4069833;29;20175;-93
2022/11/26 18:39:18;;;;;;;16.52;6.75;;;8.90;99.90;;;;;;4070280;29;20176;-94
2022/11/26 18:41:20;;;;;;;19.37;7.40;;;9.00;99.90;;;;;;4087034;29;20262;-95
2022/11/26 18:43:22;;;;;;;18.43;6.60;;;9.00;99.90;;;;;;4071028;29;20208;-94
2022/11/26 18:45:22;;;;;;;23.85;7.28;;;9.20;99.90;;;;;;4085977;29;20172;-93
2022/11/26 18:47:23;;;;;;;23.07;6.77;;;9.20;99.90;;;;;;4070862;29;20215;-95
2022/11/26 18:49:24;;;;;;;16.67;6.65;;;9.10;99.90;;;;;;4071272;29;20207;-93
2022/11/26 18:51:25;;;;;;;18.98;6.60;;;9.00;99.90;;;;;;4086071;29;20298;-95
2022/11/26 18:53:27;;;;;;;17.43;6.67;;;8.70;99.90;;;;;;4087162;29;20625;-92
2022/11/26 18:55:28;;;;;;;22.63;7.27;;;8.60;99.90;;;;;;4070842;29;20184;-93
2022/11/26 18:57:30;;;;;;;22.60;6.97;;;8.80;99.90;;;;;;4071576;29;20196;-92
2022/11/26 18:59:31;;;;;;;16.40;6.17;;;8.70;99.90;;;;;;4071176;29;20581;-92
2022/11/26 19:01:33;;;;;;;19.13;6.50;;;8.60;99.90;;;;;;4070839;29;20180;-92
2022/11/26 19:03:34;;;;;;;17.63;6.07;;;8.60;99.90;;;;;;4070947;29;20299;-94
2022/11/26 19:05:36;;;;;;;18.07;6.33;;;8.40;99.90;;;;;;4086780;29;20199;-93
2022/11/26 19:07:37;;;;;;;21.05;6.65;;;8.50;99.90;;;;;;4070688;29;20220;-93
2022/11/26 19:09:37;;;;;;;17.40;6.57;;;8.60;99.90;;;;;;4070087;29;20507;-93
2022/11/26 19:11:38;;;;;;;16.03;6.37;;;8.60;99.90;;;;;;4085404;29;20266;-94
2022/11/26 19:13:39;;;;;;;16.03;6.07;;;8.50;99.90;;;;;;4070014;29;20200;-93
2022/11/26 19:15:44;;;;;;;18.77;6.70;;;8.50;99.90;;;;;;4070067;29;20244;-94
2022/11/26 19:17:45;;;;;;;19.70;7.10;;;8.60;99.90;;;;;;4085684;29;20187;-94
2022/11/26 19:19:45;;;;;;;24.00;6.83;;;8.70;99.90;;;;;;4069331;29;20205;-94
2022/11/26 19:21:48;;;;;;;26.00;5.95;;;8.70;99.90;;;;;;4069725;29;20223;-94
2022/11/26 19:23:50;;;;;;;17.05;5.45;;;8.60;99.90;;;;;;4070001;29;20208;-95
2022/11/26 19:25:51;;;;;;;35.97;12.00;;;8.70;99.90;;;;;;4085023;29;20648;-94
2022/11/26 19:27:52;;;;;;;16.30;5.23;;;8.70;99.90;;;;;;4069439;29;20203;-94
2022/11/26 19:29:52;;;;;;;19.73;6.07;;;8.60;99.90;;;;;;4069723;29;20204;-94
2022/11/26 19:31:53;;;;;;;25.73;6.00;;;8.50;99.90;;;;;;4069502;29;20185;-93
2022/11/26 19:33:56;;;;;;;13.00;5.07;;;8.80;99.90;;;;;;4085055;29;20204;-94
2022/11/26 19:35:57;;;;;;;14.98;5.65;;;8.70;99.90;;;;;;4069431;29;20674;-95
2022/11/26 19:37:58;;;;;;;15.20;5.78;;;8.80;99.90;;;;;;4069527;29;20164;-93
2022/11/26 19:40:00;;;;;;;18.20;5.85;;;8.60;99.90;;;;;;4085313;29;20235;-92
2022/11/26 19:42:01;;;;;;;19.58;6.15;;;8.70;99.90;;;;;;4069090;29;20290;-94
2022/11/26 19:44:04;;;;;;;16.08;5.63;;;8.70;99.90;;;;;;4069264;29;20255;-94
2022/11/26 19:46:10;;;;;;;18.63;6.37;;;8.90;99.90;;;;;;4069321;29;20190;-95
2022/11/26 19:48:11;;;;;;;16.08;6.15;;;9.10;99.90;;;;;;4084809;29;20176;-94
2022/11/26 19:50:12;;;;;;;18.00;6.57;;;9.20;99.90;;;;;;4069219;29;20517;-93
2022/11/26 19:52:13;;;;;;;17.70;6.50;;;9.10;99.90;;;;;;4068968;29;20180;-92
2022/11/26 19:54:13;;;;;;;21.27;5.68;;;9.10;99.90;;;;;;4069096;29;20243;-94
2022/11/26 19:56:24;;;;;;;16.65;6.10;;;9.20;99.90;;;;;;4070104;29;20188;-93
2022/11/26 19:58:26;;;;;;;16.52;5.85;;;9.10;99.90;;;;;;4087481;29;20236;-90
2022/11/26 20:00:27;;;;;;;15.33;6.50;;;9.00;99.90;;;;;;4075126;29;20176;-93
2022/11/26 20:02:27;;;;;;;12.67;6.17;;;9.20;99.90;;;;;;4084515;29;20270;-94
2022/11/26 20:04:29;;;;;;;16.60;5.65;;;9.00;99.90;;;;;;4068873;29;20196;-95
2022/11/26 20:06:31;;;;;;;19.47;5.90;;;8.80;99.90;;;;;;4068646;29;20430;-92
2022/11/26 20:08:37;;;;;;;16.65;6.22;;;8.60;99.90;;;;;;4084454;29;20267;-96
2022/11/26 20:10:38;;;;;;;18.13;6.25;;;8.60;99.90;;;;;;4084425;29;20206;-94
2022/11/26 20:12:39;;;;;;;16.58;6.20;;;8.60;99.90;;;;;;4068883;29;20578;-94
2022/11/26 20:14:39;;;;;;;18.67;6.38;;;8.70;99.90;;;;;;4068491;29;20240;-92
2022/11/26 20:16:43;;;;;;;14.60;5.87;;;8.70;99.90;;;;;;4068938;29;20232;-94
2022/11/26 20:18:46;;;;;;;19.10;6.03;;;8.60;99.90;;;;;;4084974;29;20491;-94
2022/11/26 20:20:58;;;;;;;21.67;6.15;;;8.80;99.90;;;;;;4068809;29;20176;-93
2022/11/26 20:22:59;;;;;;;14.37;6.20;;;9.00;99.90;;;;;;4084881;29;20358;-94
2022/11/26 20:24:59;;;;;;;18.48;7.10;;;9.00;99.90;;;;;;4068846;29;20199;-93
2022/11/26 20:27:01;;;;;;;17.93;6.70;;;9.10;99.90;;;;;;4086126;29;20180;-93
2022/11/26 20:29:11;;;;;;;15.15;6.55;;;9.20;99.90;;;;;;4068981;29;20261;-93
2022/11/26 20:31:13;;;;;;;19.50;7.03;;;8.90;99.90;;;;;;4069054;29;20209;-95
2022/11/26 20:33:17;;;;;;;16.83;6.13;;;8.90;99.90;;;;;;4084604;29;20170;-92
2022/11/26 20:35:20;;;;;;;21.07;6.93;;;9.20;99.90;;;;;;4084936;29;20238;-96
2022/11/26 20:37:21;;;;;;;24.20;7.22;;;9.40;99.90;;;;;;4068762;29;20172;-94
2022/11/26 20:39:23;;;;;;;21.60;7.00;;;9.50;99.90;;;;;;4068633;29;20191;-95
2022/11/26 20:41:25;;;;;;;22.33;7.00;;;9.30;99.90;;;;;;4068638;29;20177;-93
2022/11/26 20:43:26;;;;;;;20.95;8.07;;;9.40;99.90;;;;;;4086296;29;20288;-94
2022/11/26 20:45:27;;;;;;;21.17;6.67;;;9.30;99.90;;;;;;4085053;29;20167;-93
2022/11/26 20:47:28;;;;;;;23.37;6.80;;;9.40;99.90;;;;;;4068775;29;20672;-93
2022/11/26 20:49:28;;;;;;;23.33;7.75;;;9.40;99.90;;;;;;4084361;29;20180;-95
2022/11/26 20:51:29;;;;;;;16.35;6.40;;;9.30;99.90;;;;;;4085432;29;20221;-95
2022/11/26 20:53:31;;;;;;;18.70;6.93;;;9.40;99.90;;;;;;4068852;29;20204;-94
2022/11/26 20:55:32;;;;;;;20.88;7.22;;;9.50;99.90;;;;;;4069011;29;20181;-94
2022/11/26 20:57:34;;;;;;;15.07;6.30;;;9.50;99.90;;;;;;4084285;29;20270;-95
2022/11/26 20:59:36;;;;;;;19.35;6.47;;;9.50;99.90;;;;;;4068713;29;20188;-94
2022/11/26 21:01:37;;;;;;;19.30;6.90;;;9.40;99.90;;;;;;4086530;29;20244;-93
2022/11/26 21:03:38;;;;;;;23.13;7.03;;;9.60;99.90;;;;;;4071248;29;20224;-94
2022/11/26 21:05:38;;;;;;;24.17;7.20;;;9.60;99.90;;;;;;4071684;29;20745;-92
2022/11/26 21:07:40;;;;;;;25.00;7.30;;;9.60;99.90;;;;;;4087356;29;20176;-91
2022/11/26 21:09:40;;;;;;;21.95;7.55;;;9.70;99.90;;;;;;4071098;29;20181;-92
2022/11/26 21:11:41;;;;;;;23.80;6.90;;;9.60;99.90;;;;;;4071394;29;20562;-91
2022/11/26 21:13:42;;;;;;;21.65;7.50;;;9.50;99.90;;;;;;4071283;29;20247;-91
2022/11/26 21:15:47;;;;;;;17.25;6.35;;;9.40;99.90;;;;;;4071185;29;20176;-94
2022/11/26 21:17:48;;;;;;;18.83;7.17;;;9.60;99.90;;;;;;4070938;29;20180;-93
2022/11/26 21:19:49;;;;;;;19.27;6.80;;;9.60;99.90;;;;;;4086745;29;20565;-90
2022/11/26 21:21:49;;;;;;;17.60;6.78;;;9.70;99.90;;;;;;4071311;29;20172;-93
2022/11/26 21:23:50;;;;;;;15.63;6.93;;;9.80;99.90;;;;;;4070859;29;20212;-90
2022/11/26 21:25:51;;;;;;;18.65;6.35;;;9.60;99.90;;;;;;4071706;29;20176;-92
2022/11/26 21:27:52;;;;;;;20.30;6.72;;;9.70;99.90;;;;;;4071042;29;20177;-95
2022/11/26 21:29:53;;;;;;;27.52;7.25;;;9.60;99.90;;;;;;4071274;29;20279;-90
2022/11/26 21:31:54;;;;;;;20.98;6.50;;;9.50;99.90;;;;;;4071107;29;20173;-93
2022/11/26 21:34:00;;;;;;;20.02;6.22;;;9.50;99.90;;;;;;4071177;29;20231;-94
2022/11/26 21:36:09;;;;;;;20.25;6.55;;;9.40;99.90;;;;;;4071569;29;20204;-94
2022/11/26 21:38:10;;;;;;;21.00;6.65;;;9.50;99.90;;;;;;4086603;29;20199;-94
2022/11/26 21:40:11;;;;;;;23.57;6.50;;;9.50;99.90;;;;;;4086742;29;20194;-92
2022/11/26 21:42:12;;;;;;;18.42;6.30;;;9.50;99.90;;;;;;4071927;29;20272;-95
2022/11/26 21:44:13;;;;;;;23.98;6.50;;;9.50;99.90;;;;;;4070905;29;20207;-93
2022/11/26 21:46:22;;;;;;;19.48;5.88;;;9.40;99.90;;;;;;4070783;29;20164;-93
2022/11/26 21:48:23;;;;;;;16.67;5.68;;;9.60;99.90;;;;;;4086283;29;20247;-94
2022/11/26 21:50:24;;;;;;;24.85;5.80;;;9.50;99.90;;;;;;4070743;29;20188;-94
2022/11/26 21:52:25;;;;;;;22.23;5.93;;;9.60;99.90;;;;;;4071132;29;20722;-94
2022/11/26 21:54:26;;;;;;;12.60;5.78;;;9.60;99.90;;;;;;4070472;29;20192;-95
2022/11/26 21:56:29;;;;;;;17.77;5.68;;;9.40;99.90;;;;;;4070651;29;20212;-94
2022/11/26 21:58:32;;;;;;;19.35;5.47;;;9.50;99.90;;;;;;4070734;29;20272;-94
2022/11/26 22:00:32;;;;;;;19.08;5.60;;;9.50;99.90;;;;;;4070886;29;20255;-93
2022/11/26 22:02:33;;;;;;;21.58;5.43;;;9.60;99.90;;;;;;4070457;29;20197;-93
2022/11/26 22:04:34;;;;;;;20.87;5.43;;;9.60;99.90;;;;;;4070713;29;20213;-92
2022/11/26 22:06:35;;;;;;;21.77;5.75;;;9.50;99.90;;;;;;4070754;29;20257;-92
2022/11/26 22:08:37;;;;;;;17.70;4.63;;;9.50;99.90;;;;;;4070511;29;20217;-93
2022/11/26 22:10:38;;;;;;;15.90;4.50;;;9.40;99.90;;;;;;4086375;29;20205;-92
2022/11/26 22:12:38;;;;;;;21.25;4.55;;;9.30;99.90;;;;;;4070566;29;20664;-92
2022/11/26 22:14:39;;;;;;;19.57;4.70;;;9.00;99.90;;;;;;4070520;29;20199;-94
2022/11/26 22:16:41;;;;;;;24.17;4.55;;;8.80;99.90;;;;;;4070539;29;20794;-94
2022/11/26 22:18:43;;;;;;;19.77;4.90;;;8.80;99.90;;;;;;4085905;29;20242;-94
2022/11/26 22:20:51;;;;;;;16.27;4.50;;;8.70;99.90;;;;;;4070358;29;20224;-92
2022/11/26 22:22:51;;;;;;;17.03;4.07;;;8.80;99.90;;;;;;4085747;29;20684;-93
2022/11/26 22:24:52;;;;;;;19.77;4.50;;;8.80;99.90;;;;;;4069988;29;20192;-95
2022/11/26 22:26:53;;;;;;;18.13;4.37;;;8.90;99.90;;;;;;4070317;29;20183;-93
2022/11/26 22:28:57;;;;;;;15.50;4.63;;;9.00;99.90;;;;;;4070139;29;20183;-93
2022/11/26 22:30:57;;;;;;;15.35;3.95;;;9.00;99.90;;;;;;4085952;29;20179;-94
2022/11/26 22:33:00;;;;;;;17.45;4.40;;;9.00;99.90;;;;;;4070054;29;20259;-92
2022/11/26 22:35:01;;;;;;;18.80;4.95;;;9.10;99.90;;;;;;4070518;29;20204;-93
2022/11/26 22:37:01;;;;;;;18.67;5.13;;;9.20;99.90;;;;;;4086234;29;20296;-92
2022/11/26 22:39:04;;;;;;;19.13;4.67;;;9.20;99.90;;;;;;4071300;29;20626;-91
2022/11/26 22:41:09;;;;;;;16.33;5.30;;;9.30;99.90;;;;;;4070718;29;20177;-93
2022/11/26 22:43:10;;;;;;;15.07;4.43;;;9.20;99.90;;;;;;4070547;29;20247;-92
2022/11/26 22:45:11;;;;;;;25.10;5.40;;;9.20;99.90;;;;;;4070827;29;20199;-91
2022/11/26 22:47:11;;;;;;;23.13;5.47;;;9.20;99.90;;;;;;4070252;29;20557;-94
2022/11/26 22:49:14;;;;;;;19.20;5.43;;;9.10;99.90;;;;;;4070872;29;20176;-93
2022/11/26 22:51:15;;;;;;;16.10;4.70;;;9.00;99.90;;;;;;4071047;29;20622;-92
2022/11/26 22:53:16;;;;;;;28.88;5.03;;;9.00;99.90;;;;;;4069794;29;20697;-92
2022/11/26 22:55:17;;;;;;;20.53;4.97;;;9.00;99.90;;;;;;4069702;29;20192;-93
2022/11/26 22:57:18;;;;;;;18.70;4.87;;;8.90;99.90;;;;;;4069652;29;20645;-93
2022/11/26 22:59:18;;;;;;;15.77;4.93;;;8.80;99.90;;;;;;4069742;29;20180;-94
2022/11/26 23:01:22;;;;;;;18.90;5.07;;;8.80;99.90;;;;;;4069774;29;20211;-93
2022/11/26 23:03:24;;;;;;;14.00;5.00;;;8.80;99.90;;;;;;4069495;29;20226;-94
2022/11/26 23:05:25;;;;;;;17.75;5.10;;;8.80;99.90;;;;;;4085375;29;20175;-93
2022/11/26 23:07:26;;;;;;;21.60;4.93;;;8.90;99.90;;;;;;4086456;29;20183;-94
2022/11/26 23:09:27;;;;;;;17.93;4.83;;;8.70;99.90;;;;;;4069910;29;20263;-92
2022/11/26 23:11:36;;;;;;;19.88;5.25;;;8.70;99.90;;;;;;4085799;29;20749;-92
2022/11/26 23:13:39;;;;;;;21.40;5.33;;;8.80;99.90;;;;;;4069373;29;20183;-94
2022/11/26 23:15:43;;;;;;;19.47;5.00;;;8.70;99.90;;;;;;4069645;29;20263;-94
2022/11/26 23:17:43;;;;;;;19.83;5.33;;;8.60;99.90;;;;;;4069334;29;20180;-92
2022/11/26 23:19:44;;;;;;;17.33;5.10;;;8.80;99.90;;;;;;4069514;29;20570;-92
2022/11/26 23:21:45;;;;;;;19.37;5.37;;;8.80;99.90;;;;;;4085207;29;20240;-90
2022/11/26 23:23:47;;;;;;;16.43;5.13;;;8.80;99.90;;;;;;4069391;29;20256;-93
2022/11/26 23:25:48;;;;;;;22.03;5.80;;;8.80;99.90;;;;;;4069566;29;20553;-93
2022/11/26 23:27:48;;;;;;;15.88;5.28;;;8.90;99.90;;;;;;4070185;29;20184;-92
2022/11/26 23:29:49;;;;;;;20.03;5.77;;;8.90;99.90;;;;;;4070056;29;20527;-92
2022/11/26 23:31:50;;;;;;;23.37;5.93;;;9.00;99.90;;;;;;4069834;29;20215;-94
2022/11/26 23:33:51;;;;;;;20.00;6.00;;;8.90;99.90;;;;;;4069457;29;20247;-91
2022/11/26 23:35:52;;;;;;;24.27;6.23;;;8.90;99.90;;;;;;4071682;29;20161;-94
2022/11/26 23:37:53;;;;;;;18.40;6.23;;;9.10;99.90;;;;;;4070054;29;20572;-92
2022/11/26 23:39:53;;;;;;;18.00;5.73;;;9.10;99.90;;;;;;4069967;29;20176;-93
2022/11/26 23:41:54;;;;;;;23.53;6.70;;;9.20;99.90;;;;;;4069758;29;20176;-93
2022/11/26 23:43:55;;;;;;;19.13;5.90;;;9.20;99.90;;;;;;4068992;29;20212;-92
2022/11/26 23:46:09;;;;;;;25.13;6.33;;;9.30;99.90;;;;;;4085344;29;20533;-93
2022/11/26 23:48:09;;;;;;;19.80;6.43;;;9.10;99.90;;;;;;4070314;29;20180;-94
2022/11/26 23:50:11;;;;;;;22.75;6.18;;;9.10;99.90;;;;;;4071325;29;20198;-94
2022/11/26 23:52:12;;;;;;;20.95;6.63;;;9.10;99.90;;;;;;4086021;29;20183;-94
2022/11/26 23:54:13;;;;;;;16.80;5.80;;;9.10;99.90;;;;;;4084803;29;20299;-92
